Time;durP1;ratioP1;P1;durP2;ratioP2;P2;SDS_P1;SDS_P2;PMS_P1;PMS_P2;Temp;Humidity;BMP_temperature;BMP_pressure;BME280_temperature;BME280_humidity;BME280_pressure;Samples;Min_cycle;Max_cycle;Signal;HPM_P1;HPM_P2
2023/03/13 00:02:09;;;;;;;10.27;4.63;;;13.20;96.70;;;;;;5054478;28;20942;-74
2023/03/13 00:04:37;;;;;;;10.93;4.43;;;13.20;96.70;;;;;;5081040;28;20044;-74
2023/03/13 00:07:23;;;;;;;15.40;5.32;;;13.10;96.70;;;;;;5087175;28;20040;-73
2023/03/13 00:09:51;;;;;;;10.90;4.47;;;13.00;96.70;;;;;;5084227;28;20051;-74
2023/03/13 00:12:19;;;;;;;11.45;4.47;;;12.90;96.70;;;;;;5066040;28;20154;-73
2023/03/13 00:14:47;;;;;;;10.30;4.70;;;13.00;96.70;;;;;;5071966;28;20036;-74
2023/03/13 00:17:15;;;;;;;11.07;4.30;;;13.00;96.70;;;;;;5085560;28;20044;-74
2023/03/13 00:19:43;;;;;;;9.88;4.80;;;13.00;96.70;;;;;;5060621;28;20070;-73
2023/03/13 00:22:11;;;;;;;9.45;4.70;;;13.00;96.70;;;;;;5075494;28;20047;-74
2023/03/13 00:24:40;;;;;;;10.55;4.10;;;13.00;96.70;;;;;;5085613;28;20036;-74
2023/03/13 00:27:08;;;;;;;11.15;4.82;;;13.10;96.70;;;;;;5085002;28;20394;-74
2023/03/13 00:29:37;;;;;;;11.88;4.60;;;13.00;96.70;;;;;;5073537;28;20937;-73
2023/03/13 00:32:05;;;;;;;13.82;5.00;;;12.80;96.70;;;;;;5081861;28;20848;-74
2023/03/13 00:34:33;;;;;;;8.95;4.50;;;12.80;96.70;;;;;;5071740;28;20047;-74
2023/03/13 00:37:01;;;;;;;11.93;4.90;;;12.80;96.70;;;;;;5064645;28;20039;-74
2023/03/13 00:39:29;;;;;;;8.32;4.75;;;12.80;96.70;;;;;;5080411;28;20051;-74
2023/03/13 00:42:02;;;;;;;13.60;5.00;;;12.90;96.70;;;;;;5070683;28;20044;-74
2023/03/13 00:44:30;;;;;;;13.35;4.78;;;12.80;96.70;;;;;;5081300;28;20039;-73
2023/03/13 00:46:58;;;;;;;8.60;4.20;;;12.80;96.70;;;;;;5082507;28;20138;-73
2023/03/13 00:49:26;;;;;;;9.27;5.22;;;12.70;96.70;;;;;;5067986;28;20048;-73
2023/03/13 00:51:54;;;;;;;11.48;4.78;;;12.70;96.70;;;;;;5086944;28;20043;-74
2023/03/13 00:54:22;;;;;;;11.45;4.70;;;12.60;96.70;;;;;;5052237;28;20063;-74
2023/03/13 00:56:50;;;;;;;11.85;4.78;;;12.60;96.70;;;;;;5069551;28;20498;-74
2023/03/13 00:59:20;;;;;;;9.95;4.00;;;12.70;96.70;;;;;;5081168;28;20039;-74
2023/03/13 01:01:48;;;;;;;11.63;4.70;;;12.60;96.70;;;;;;5058092;28;20685;-73
2023/03/13 01:04:16;;;;;;;9.40;4.18;;;12.60;96.70;;;;;;5065560;28;20178;-74
2023/03/13 01:06:44;;;;;;;9.35;4.00;;;12.60;96.70;;;;;;5079562;28;20460;-73
2023/03/13 01:09:14;;;;;;;10.65;3.70;;;12.50;96.70;;;;;;5071799;28;20054;-73
2023/03/13 01:11:43;;;;;;;8.90;4.40;;;12.50;96.70;;;;;;5056143;28;20051;-74
2023/03/13 01:14:16;;;;;;;7.68;4.05;;;12.50;96.70;;;;;;5080765;28;20040;-73
2023/03/13 01:16:46;;;;;;;12.65;4.38;;;12.60;96.70;;;;;;5051055;28;20487;-74
2023/03/13 01:19:15;;;;;;;10.13;4.28;;;12.60;96.70;;;;;;5067980;28;20052;-74
2023/03/13 01:21:45;;;;;;;10.15;4.10;;;12.60;96.70;;;;;;5078381;28;20040;-74
2023/03/13 01:24:13;;;;;;;8.20;3.45;;;12.60;96.70;;;;;;5070969;28;20596;-74
2023/03/13 01:26:43;;;;;;;8.23;3.38;;;12.60;96.70;;;;;;5067390;28;20117;-74
2023/03/13 01:29:11;;;;;;;11.40;4.03;;;12.50;96.70;;;;;;5064275;28;20443;-74
2023/03/13 01:31:39;;;;;;;9.60;4.05;;;12.50;96.70;;;;;;5039379;28;20762;-73
2023/03/13 01:34:10;;;;;;;9.45;3.30;;;12.50;96.70;;;;;;5065887;28;20134;-73
2023/03/13 01:36:38;;;;;;;11.70;3.70;;;12.50;96.70;;;;;;5080200;28;20037;-74
2023/03/13 01:39:06;;;;;;;10.45;4.03;;;12.50;96.70;;;;;;5064950;28;20047;-74
2023/03/13 01:41:36;;;;;;;8.38;3.75;;;12.50;96.70;;;;;;5067015;28;20043;-74
2023/03/13 01:44:04;;;;;;;10.43;3.92;;;12.40;96.70;;;;;;5083245;28;20445;-73
2023/03/13 01:46:35;;;;;;;9.98;3.78;;;12.20;96.70;;;;;;5065097;28;20047;-75
2023/03/13 01:49:14;;;;;;;8.60;3.90;;;12.30;96.70;;;;;;5068920;28;20036;-73
2023/03/13 01:52:09;;;;;;;12.32;4.20;;;12.30;96.70;;;;;;5053193;28;20062;-74
2023/03/13 01:54:49;;;;;;;7.65;3.22;;;12.30;96.70;;;;;;5084002;28;20219;-73
2023/03/13 01:57:24;;;;;;;11.65;4.35;;;12.20;96.70;;;;;;5073701;28;20059;-73
2023/03/13 01:59:55;;;;;;;9.55;3.83;;;12.20;96.70;;;;;;5068745;28;20041;-73
2023/03/13 02:02:25;;;;;;;7.40;3.05;;;12.10;96.70;;;;;;5084797;28;20228;-73
2023/03/13 02:04:59;;;;;;;6.55;3.63;;;12.00;96.70;;;;;;5068408;28;20058;-73
2023/03/13 02:07:31;;;;;;;7.95;3.28;;;11.90;96.70;;;;;;5068499;28;20201;-73
2023/03/13 02:10:00;;;;;;;7.65;3.15;;;12.00;96.70;;;;;;5053327;28;20045;-73
2023/03/13 02:12:31;;;;;;;8.73;3.20;;;11.90;96.70;;;;;;5062214;28;20505;-74
2023/03/13 02:15:04;;;;;;;8.73;3.13;;;11.90;96.70;;;;;;5054438;28;20052;-73
2023/03/13 02:17:34;;;;;;;9.13;3.90;;;11.80;96.70;;;;;;5076961;28;20807;-74
2023/03/13 02:20:04;;;;;;;9.35;3.45;;;11.80;96.70;;;;;;5061031;28;20798;-74
2023/03/13 02:22:41;;;;;;;10.05;4.18;;;11.80;96.70;;;;;;5061269;28;20055;-74
2023/03/13 02:25:15;;;;;;;7.40;3.35;;;11.80;96.70;;;;;;5065271;28;20383;-74
2023/03/13 02:27:47;;;;;;;8.27;3.50;;;11.80;96.70;;;;;;5073428;28;20130;-74
2023/03/13 02:30:15;;;;;;;10.10;3.55;;;11.80;96.70;;;;;;5086264;28;20047;-74
2023/03/13 02:32:44;;;;;;;8.20;3.65;;;11.90;96.70;;;;;;5067828;28;20577;-73
2023/03/13 02:35:15;;;;;;;11.73;3.33;;;11.90;96.70;;;;;;5053611;28;20040;-73
2023/03/13 02:37:46;;;;;;;8.65;2.97;;;11.80;96.70;;;;;;5056585;28;20585;-73
2023/03/13 02:40:23;;;;;;;7.35;3.55;;;11.80;96.70;;;;;;5055526;28;20052;-73
2023/03/13 02:42:54;;;;;;;7.68;2.95;;;11.70;96.70;;;;;;5055463;28;20052;-73
2023/03/13 02:45:22;;;;;;;6.28;2.67;;;11.70;96.70;;;;;;5055403;28;21393;-73
2023/03/13 02:47:50;;;;;;;8.30;3.60;;;11.80;96.70;;;;;;5081417;28;20054;-74
2023/03/13 02:50:19;;;;;;;8.55;3.85;;;11.80;96.70;;;;;;5078578;28;20044;-74
2023/03/13 02:52:50;;;;;;;9.63;3.40;;;11.70;96.70;;;;;;5063207;28;20047;-73
2023/03/13 02:55:23;;;;;;;7.63;3.70;;;11.70;96.70;;;;;;5060909;28;20799;-73
2023/03/13 02:57:52;;;;;;;8.85;3.40;;;11.70;96.70;;;;;;5055285;28;20060;-74
2023/03/13 03:00:25;;;;;;;8.63;3.58;;;11.70;96.70;;;;;;5078264;28;20054;-74
2023/03/13 03:02:55;;;;;;;7.65;3.78;;;11.70;96.70;;;;;;5048821;28;20067;-74
2023/03/13 03:05:22;;;;;;;9.50;3.25;;;11.70;96.70;;;;;;5075700;28;20083;-73
2023/03/13 03:07:50;;;;;;;7.20;3.25;;;11.60;96.70;;;;;;5062566;28;20155;-74
2023/03/13 03:10:19;;;;;;;7.18;3.20;;;11.50;96.70;;;;;;5054221;28;20052;-73
2023/03/13 03:12:47;;;;;;;7.82;3.42;;;11.30;96.70;;;;;;5073935;28;20085;-75
2023/03/13 03:15:16;;;;;;;7.75;2.90;;;11.30;96.70;;;;;;5068288;28;20699;-74
2023/03/13 03:17:46;;;;;;;9.48;3.40;;;11.30;96.70;;;;;;5069712;28;20063;-73
2023/03/13 03:20:15;;;;;;;4.78;2.53;;;11.30;96.70;;;;;;5045081;28;20554;-73
2023/03/13 03:22:43;;;;;;;5.35;2.40;;;11.40;96.70;;;;;;5059859;28;20047;-73
2023/03/13 03:25:11;;;;;;;9.55;3.05;;;11.40;96.70;;;;;;5057918;28;20051;-74
2023/03/13 03:27:39;;;;;;;6.13;2.40;;;11.40;96.70;;;;;;5055600;28;20187;-73
2023/03/13 03:30:09;;;;;;;6.68;3.15;;;11.30;96.70;;;;;;5071608;28;20048;-74
2023/03/13 03:32:40;;;;;;;7.07;3.08;;;11.40;96.70;;;;;;5075105;28;20047;-74
2023/03/13 03:35:08;;;;;;;9.25;2.88;;;11.30;96.70;;;;;;5057230;28;20072;-73
2023/03/13 03:37:36;;;;;;;10.13;3.15;;;11.20;96.70;;;;;;5056502;28;20053;-74
2023/03/13 03:40:05;;;;;;;5.97;3.28;;;11.10;96.70;;;;;;5086791;28;20040;-73
2023/03/13 03:42:34;;;;;;;5.97;2.90;;;11.20;96.70;;;;;;5063865;28;20047;-73
2023/03/13 03:45:03;;;;;;;8.13;3.47;;;11.30;96.70;;;;;;5063171;28;20043;-74
2023/03/13 03:47:31;;;;;;;7.50;3.25;;;11.30;96.70;;;;;;5058406;28;20040;-74
2023/03/13 03:50:02;;;;;;;7.22;3.30;;;11.30;96.70;;;;;;5071703;28;20432;-74
2023/03/13 03:52:37;;;;;;;5.15;2.80;;;11.30;96.70;;;;;;5070326;28;20044;-74
2023/03/13 03:55:05;;;;;;;7.38;3.20;;;11.30;96.70;;;;;;5079945;28;20532;-74
2023/03/13 03:57:33;;;;;;;8.65;3.17;;;11.30;96.70;;;;;;5087405;28;20066;-74
2023/03/13 04:00:01;;;;;;;7.65;3.42;;;11.30;96.70;;;;;;5066997;28;20040;-73
2023/03/13 04:02:39;;;;;;;6.20;3.00;;;11.30;96.70;;;;;;5080363;28;20401;-73
2023/03/13 04:05:10;;;;;;;6.35;3.33;;;11.20;96.70;;;;;;5073619;28;20044;-73
2023/03/13 04:07:39;;;;;;;7.28;3.13;;;11.20;96.70;;;;;;5074808;28;20097;-74
2023/03/13 04:10:09;;;;;;;10.18;3.40;;;11.10;96.70;;;;;;5082089;28;20043;-74
2023/03/13 04:12:43;;;;;;;6.75;3.38;;;11.00;96.70;;;;;;5071701;28;20130;-73
2023/03/13 04:15:13;;;;;;;6.43;2.90;;;11.10;96.70;;;;;;5049003;28;20055;-74
2023/03/13 04:17:41;;;;;;;9.45;3.53;;;11.00;96.70;;;;;;5055818;28;20067;-73
2023/03/13 04:20:13;;;;;;;8.18;3.47;;;10.70;96.70;;;;;;5066180;28;20058;-74
2023/03/13 04:22:41;;;;;;;8.45;3.35;;;10.60;96.70;;;;;;5070650;28;20056;-73
2023/03/13 04:25:09;;;;;;;6.78;3.35;;;10.60;96.70;;;;;;5065703;28;20055;-73
2023/03/13 04:27:38;;;;;;;10.75;3.70;;;10.60;96.70;;;;;;5059542;28;20036;-73
2023/03/13 04:30:08;;;;;;;6.32;2.83;;;10.60;96.70;;;;;;5073130;28;20040;-73
2023/03/13 04:32:36;;;;;;;8.68;3.03;;;10.70;96.70;;;;;;5076413;28;20054;-73
2023/03/13 04:35:04;;;;;;;7.28;3.00;;;10.80;96.70;;;;;;5077552;28;20041;-73
2023/03/13 04:37:51;;;;;;;7.93;3.50;;;10.70;96.70;;;;;;5074797;28;20040;-74
2023/03/13 04:40:32;;;;;;;7.22;2.88;;;10.70;96.70;;;;;;5072254;28;20040;-73
2023/03/13 04:43:26;;;;;;;6.22;2.55;;;10.60;96.70;;;;;;5050916;28;20823;-74
2023/03/13 04:46:08;;;;;;;6.90;2.92;;;10.70;96.70;;;;;;5086628;28;20036;-73
2023/03/13 04:48:50;;;;;;;5.60;2.47;;;10.70;96.70;;;;;;5053220;28;20047;-73
2023/03/13 04:51:31;;;;;;;5.93;3.05;;;10.60;96.70;;;;;;5076758;28;20044;-73
2023/03/13 04:54:16;;;;;;;8.63;3.67;;;10.70;96.70;;;;;;5067657;28;20059;-74
2023/03/13 04:57:02;;;;;;;8.15;3.28;;;10.60;96.70;;;;;;5088543;28;20047;-74
2023/03/13 04:59:53;;;;;;;6.70;3.10;;;10.70;96.70;;;;;;5052151;28;20149;-73
2023/03/13 05:02:37;;;;;;;7.15;2.75;;;10.60;96.70;;;;;;5072997;28;20036;-74
2023/03/13 05:05:27;;;;;;;5.90;3.00;;;10.60;96.70;;;;;;5062384;28;20051;-73
2023/03/13 05:08:18;;;;;;;6.70;2.90;;;10.50;96.70;;;;;;5061702;28;20048;-74
2023/03/13 05:11:12;;;;;;;8.10;3.63;;;10.70;96.70;;;;;;5086041;28;20069;-73
2023/03/13 05:13:59;;;;;;;4.35;2.75;;;10.60;96.70;;;;;;5049658;28;20620;-74
2023/03/13 05:16:50;;;;;;;5.07;3.10;;;10.60;96.70;;;;;;5043976;28;20615;-74
2023/03/13 05:19:53;;;;;;;5.07;2.70;;;10.50;96.70;;;;;;5077222;28;20037;-74
2023/03/13 05:22:29;;;;;;;6.43;2.88;;;10.60;96.70;;;;;;5063373;28;20127;-74
2023/03/13 05:25:35;;;;;;;6.40;2.60;;;10.50;96.70;;;;;;4979905;28;20050;-74
2023/03/13 05:28:25;;;;;;;6.10;3.13;;;10.60;96.70;;;;;;4980812;28;20061;-74
2023/03/13 05:31:13;;;;;;;7.97;3.30;;;10.60;96.70;;;;;;4964495;28;20087;-74
2023/03/13 05:34:12;;;;;;;7.15;3.00;;;10.60;96.70;;;;;;4966185;28;20100;-74
2023/03/13 05:37:00;;;;;;;5.60;3.50;;;10.60;96.70;;;;;;4944068;28;20125;-75
2023/03/13 05:39:54;;;;;;;10.38;3.88;;;10.60;96.70;;;;;;4968170;28;20408;-74
2023/03/13 05:42:48;;;;;;;6.38;3.58;;;10.60;96.70;;;;;;4961949;28;20108;-74
2023/03/13 05:45:26;;;;;;;7.72;3.90;;;10.60;96.70;;;;;;4970218;28;20058;-74
2023/03/13 05:48:05;;;;;;;8.63;3.92;;;10.60;96.70;;;;;;4950360;28;20124;-75
2023/03/13 05:50:54;;;;;;;6.72;3.40;;;10.60;96.70;;;;;;4963879;28;20046;-74
2023/03/13 05:53:57;;;;;;;9.00;3.00;;;10.60;96.70;;;;;;4943340;28;20054;-74
2023/03/13 05:56:25;;;;;;;8.07;3.72;;;10.70;96.70;;;;;;5020685;28;20460;-74
2023/03/13 05:59:19;;;;;;;7.03;3.53;;;10.80;96.70;;;;;;5026341;28;20629;-74
2023/03/13 06:02:08;;;;;;;10.57;3.80;;;10.80;96.70;;;;;;5013913;28;20185;-74
2023/03/13 06:04:41;;;;;;;8.13;3.35;;;10.70;96.70;;;;;;5007242;28;20045;-74
2023/03/13 06:07:09;;;;;;;7.95;3.42;;;10.80;96.70;;;;;;5005691;28;20127;-74
2023/03/13 06:09:39;;;;;;;7.85;3.65;;;11.00;96.70;;;;;;5004630;28;20634;-76
2023/03/13 06:12:09;;;;;;;6.07;3.35;;;11.00;96.70;;;;;;5007527;28;20045;-74
2023/03/13 06:14:38;;;;;;;11.38;5.63;;;11.00;96.70;;;;;;5001470;28;20140;-74
2023/03/13 06:17:21;;;;;;;11.48;6.93;;;11.00;96.70;;;;;;5006300;28;20136;-74
2023/03/13 06:19:49;;;;;;;10.80;5.45;;;11.10;96.70;;;;;;5024303;28;20152;-74
2023/03/13 06:22:17;;;;;;;6.18;3.67;;;11.10;96.70;;;;;;5002531;28;20388;-74
2023/03/13 06:24:48;;;;;;;7.88;4.03;;;11.20;96.70;;;;;;5009980;28;20485;-74
2023/03/13 06:27:16;;;;;;;7.15;2.90;;;11.20;96.70;;;;;;5002000;28;20510;-74
2023/03/13 06:29:44;;;;;;;7.45;3.17;;;11.20;96.70;;;;;;5009930;28;20069;-75
2023/03/13 06:32:12;;;;;;;6.40;3.42;;;11.20;96.70;;;;;;5006548;28;20053;-74
2023/03/13 06:34:41;;;;;;;6.50;2.97;;;11.20;96.70;;;;;;5018535;28;20045;-74
2023/03/13 06:37:09;;;;;;;6.32;3.28;;;11.30;96.70;;;;;;5063711;28;20073;-74
2023/03/13 06:39:37;;;;;;;8.68;3.60;;;11.40;96.70;;;;;;5083764;28;20059;-74
2023/03/13 06:42:06;;;;;;;5.80;2.80;;;11.40;96.70;;;;;;5042369;28;20526;-74
2023/03/13 06:44:34;;;;;;;7.43;2.85;;;11.40;96.70;;;;;;5066325;28;20029;-75
2023/03/13 06:47:02;;;;;;;9.07;3.35;;;11.40;96.70;;;;;;5082249;28;20067;-75
2023/03/13 06:49:30;;;;;;;8.32;3.47;;;11.50;96.70;;;;;;5051173;28;20543;-74
2023/03/13 06:51:59;;;;;;;6.25;3.25;;;11.40;96.70;;;;;;5087899;28;20071;-74
2023/03/13 06:54:27;;;;;;;7.18;3.25;;;11.50;96.70;;;;;;5086863;28;20040;-74
2023/03/13 06:56:55;;;;;;;8.35;3.28;;;11.50;96.70;;;;;;5065153;28;20036;-74
2023/03/13 06:59:23;;;;;;;8.20;3.15;;;11.60;96.70;;;;;;5072987;28;20044;-74
2023/03/13 07:01:51;;;;;;;5.72;3.15;;;11.60;96.70;;;;;;5087606;28;20115;-74
2023/03/13 07:04:19;;;;;;;7.28;3.70;;;11.60;96.70;;;;;;5058367;28;20658;-74
2023/03/13 07:06:47;;;;;;;10.32;4.10;;;11.70;96.70;;;;;;5090971;28;20036;-75
2023/03/13 07:09:18;;;;;;;9.40;3.53;;;11.70;96.70;;;;;;5084899;28;20049;-74
2023/03/13 07:11:46;;;;;;;8.48;3.42;;;11.70;96.70;;;;;;5064556;28;20173;-74
2023/03/13 07:14:14;;;;;;;8.73;3.65;;;11.80;96.70;;;;;;5059389;28;20092;-74
2023/03/13 07:16:44;;;;;;;5.68;3.00;;;11.90;96.70;;;;;;5066115;28;20043;-76
2023/03/13 07:19:13;;;;;;;6.13;2.95;;;12.00;96.70;;;;;;5088886;28;20975;-76
2023/03/13 07:21:42;;;;;;;5.20;2.88;;;12.00;96.70;;;;;;5083965;28;20103;-74
2023/03/13 07:24:11;;;;;;;9.80;3.33;;;12.00;96.70;;;;;;5090359;28;20393;-74
2023/03/13 07:26:40;;;;;;;7.57;3.25;;;12.10;96.70;;;;;;5073049;28;20555;-74
2023/03/13 07:29:17;;;;;;;7.63;3.15;;;12.10;96.70;;;;;;5075534;28;20391;-74
2023/03/13 07:31:45;;;;;;;6.63;3.53;;;12.20;96.70;;;;;;5074774;28;20036;-75
2023/03/13 07:34:13;;;;;;;9.07;3.83;;;12.20;96.70;;;;;;5073324;28;20043;-74
2023/03/13 07:36:41;;;;;;;8.75;3.20;;;12.30;96.70;;;;;;5068912;28;20050;-75
2023/03/13 07:39:09;;;;;;;8.57;3.38;;;12.30;96.70;;;;;;5079491;28;20059;-74
2023/03/13 07:41:38;;;;;;;8.50;3.45;;;12.40;96.70;;;;;;5060005;28;20429;-74
2023/03/13 07:44:08;;;;;;;8.68;3.63;;;12.40;96.70;;;;;;5069501;28;20051;-74
2023/03/13 07:46:36;;;;;;;8.43;3.83;;;12.40;96.70;;;;;;5071482;28;20044;-75
2023/03/13 07:49:04;;;;;;;7.38;3.70;;;12.50;96.70;;;;;;5086553;28;20044;-74
2023/03/13 07:51:31;;;;;;;6.32;3.72;;;12.50;96.70;;;;;;5087894;28;20031;-74
2023/03/13 07:54:10;;;;;;;9.25;3.35;;;12.60;96.70;;;;;;5066594;28;20051;-74
2023/03/13 07:56:39;;;;;;;8.95;4.03;;;12.60;96.70;;;;;;5071685;28;20137;-75
2023/03/13 07:59:09;;;;;;;7.82;3.22;;;12.70;96.70;;;;;;5061742;28;20063;-74
2023/03/13 08:01:37;;;;;;;5.60;3.13;;;12.80;96.70;;;;;;5059742;28;20072;-75
2023/03/13 08:04:05;;;;;;;9.85;3.78;;;12.80;96.70;;;;;;5065330;28;20576;-75
2023/03/13 08:06:38;;;;;;;9.07;3.60;;;12.90;96.70;;;;;;5085744;28;20083;-75
2023/03/13 08:09:06;;;;;;;8.30;4.32;;;13.00;96.70;;;;;;5095734;28;20581;-75
2023/03/13 08:11:35;;;;;;;7.18;3.90;;;13.10;96.70;;;;;;5096344;28;20036;-76
2023/03/13 08:14:03;;;;;;;8.75;4.40;;;13.20;96.70;;;;;;5054371;28;20050;-74
2023/03/13 08:16:33;;;;;;;8.85;3.80;;;13.30;96.70;;;;;;5088529;28;20355;-75
2023/03/13 08:19:04;;;;;;;10.00;3.83;;;13.50;96.70;;;;;;5061333;28;20480;-75
2023/03/13 08:21:34;;;;;;;9.13;4.22;;;13.50;96.70;;;;;;5051057;28;20571;-75
2023/03/13 08:24:05;;;;;;;12.52;5.43;;;13.60;96.70;;;;;;5092969;28;20118;-75
2023/03/13 08:26:34;;;;;;;8.27;3.95;;;13.70;96.70;;;;;;5056826;28;20032;-75
2023/03/13 08:29:05;;;;;;;10.95;4.75;;;13.80;96.70;;;;;;5093317;28;20138;-74
2023/03/13 08:31:36;;;;;;;7.80;3.97;;;13.80;96.70;;;;;;5072023;28;20673;-74
2023/03/13 08:34:04;;;;;;;9.50;3.97;;;13.90;96.70;;;;;;5068867;28;20432;-74
2023/03/13 08:36:33;;;;;;;10.43;5.95;;;13.90;96.70;;;;;;5062334;28;20429;-75
2023/03/13 08:39:04;;;;;;;14.52;7.22;;;14.00;96.70;;;;;;5070437;28;20105;-76
2023/03/13 08:41:35;;;;;;;15.45;8.88;;;14.10;96.70;;;;;;5066639;28;20074;-76
2023/03/13 08:44:04;;;;;;;20.92;12.90;;;14.30;96.70;;;;;;5082707;28;20044;-74
2023/03/13 08:46:35;;;;;;;24.38;14.55;;;14.40;96.70;;;;;;5072575;28;20440;-74
2023/03/13 08:49:05;;;;;;;29.15;16.10;;;14.60;96.70;;;;;;5069051;28;20055;-75
2023/03/13 08:51:33;;;;;;;17.65;12.40;;;14.70;96.70;;;;;;5099467;28;20093;-75
2023/03/13 08:54:02;;;;;;;20.65;12.38;;;14.80;96.70;;;;;;5065584;28;20156;-75
2023/03/13 08:56:31;;;;;;;17.90;10.73;;;14.90;96.70;;;;;;5089675;28;20052;-74
2023/03/13 08:59:00;;;;;;;13.85;6.75;;;15.00;96.70;;;;;;5092235;28;20040;-75
2023/03/13 09:01:30;;;;;;;11.10;5.80;;;15.10;96.70;;;;;;5046523;28;20041;-74
2023/03/13 09:03:59;;;;;;;11.73;5.32;;;15.20;96.70;;;;;;5060193;28;20090;-74
2023/03/13 09:06:31;;;;;;;10.70;4.55;;;15.30;96.70;;;;;;5063148;28;20091;-73
2023/03/13 09:08:59;;;;;;;10.57;5.20;;;15.40;96.70;;;;;;5065302;28;20044;-73
2023/03/13 09:11:27;;;;;;;10.95;5.45;;;15.50;96.70;;;;;;5088818;28;20051;-73
2023/03/13 09:13:55;;;;;;;11.00;4.82;;;15.50;96.70;;;;;;5064205;28;20432;-73
2023/03/13 09:16:25;;;;;;;11.93;5.60;;;15.50;96.70;;;;;;5091180;28;20043;-73
2023/03/13 09:18:53;;;;;;;12.57;5.78;;;15.50;96.70;;;;;;5063990;28;20060;-73
2023/03/13 09:21:24;;;;;;;9.45;5.10;;;15.60;96.70;;;;;;5062263;28;20075;-73
2023/03/13 09:23:52;;;;;;;13.68;6.03;;;15.60;96.70;;;;;;5101189;28;20047;-72
2023/03/13 09:26:20;;;;;;;10.23;6.07;;;15.50;96.70;;;;;;5090355;28;20541;-72
2023/03/13 09:28:50;;;;;;;12.35;6.30;;;15.50;96.70;;;;;;5073181;28;20040;-73
2023/03/13 09:31:20;;;;;;;10.75;6.32;;;15.60;96.70;;;;;;5083977;28;20040;-72
2023/03/13 09:33:50;;;;;;;11.73;6.13;;;15.60;96.70;;;;;;5101786;28;20040;-72
2023/03/13 09:36:19;;;;;;;10.35;6.15;;;15.70;96.70;;;;;;5087058;28;20055;-73
2023/03/13 09:38:51;;;;;;;12.07;6.50;;;15.80;96.70;;;;;;5058262;28;20094;-72
2023/03/13 09:41:25;;;;;;;11.77;6.03;;;15.90;96.70;;;;;;5085038;28;20035;-73
2023/03/13 09:43:59;;;;;;;8.95;4.60;;;15.90;96.70;;;;;;5085008;28;20040;-74
2023/03/13 09:46:34;;;;;;;9.43;4.30;;;15.90;96.70;;;;;;5087945;28;20401;-73
2023/03/13 09:49:07;;;;;;;8.52;4.57;;;16.00;96.70;;;;;;5073217;28;20067;-72
2023/03/13 09:51:37;;;;;;;6.63;3.60;;;16.10;96.70;;;;;;5063118;28;20071;-73
2023/03/13 09:54:12;;;;;;;8.57;3.97;;;16.30;96.70;;;;;;5099733;28;20059;-71
2023/03/13 09:56:44;;;;;;;8.70;4.40;;;16.40;96.70;;;;;;5066594;28;20047;-72
2023/03/13 09:59:18;;;;;;;9.60;3.90;;;16.40;96.70;;;;;;5069903;28;20406;-72
2023/03/13 10:01:48;;;;;;;8.45;4.05;;;16.50;96.70;;;;;;5090567;28;20043;-73
2023/03/13 10:04:27;;;;;;;10.45;5.07;;;16.60;96.70;;;;;;5064098;28;20104;-73
2023/03/13 10:06:56;;;;;;;11.85;5.05;;;16.70;96.70;;;;;;5085758;28;20505;-73
2023/03/13 10:09:29;;;;;;;12.60;5.22;;;16.80;96.70;;;;;;5056028;28;20043;-75
2023/03/13 10:12:05;;;;;;;10.00;5.50;;;16.80;96.70;;;;;;5055298;28;20048;-73
2023/03/13 10:14:42;;;;;;;11.02;5.20;;;17.00;96.70;;;;;;5061828;28;20047;-72
2023/03/13 10:17:21;;;;;;;11.82;5.93;;;17.20;96.70;;;;;;5042769;28;20567;-73
2023/03/13 10:19:56;;;;;;;9.57;4.57;;;17.30;96.70;;;;;;5068071;28;20056;-73
2023/03/13 10:22:28;;;;;;;8.82;3.83;;;17.40;96.70;;;;;;5052405;28;20080;-73
2023/03/13 10:25:04;;;;;;;8.35;3.28;;;17.50;96.70;;;;;;5076141;28;20105;-73
2023/03/13 10:27:41;;;;;;;7.80;3.25;;;17.60;96.70;;;;;;5102260;28;20043;-74
2023/03/13 10:30:21;;;;;;;6.75;3.00;;;17.80;96.70;;;;;;5105560;28;20048;-74
2023/03/13 10:32:49;;;;;;;8.88;3.50;;;17.90;96.70;;;;;;5064573;28;20101;-74
2023/03/13 10:35:22;;;;;;;10.07;3.40;;;18.00;96.70;;;;;;5077933;28;20046;-75
2023/03/13 10:37:59;;;;;;;9.73;3.20;;;18.10;96.70;;;;;;5059101;28;20566;-74
2023/03/13 10:40:29;;;;;;;10.50;3.72;;;18.30;96.70;;;;;;5084409;28;20059;-74
2023/03/13 10:43:03;;;;;;;6.68;3.17;;;18.50;96.70;;;;;;5075787;28;20037;-74
2023/03/13 10:45:34;;;;;;;9.77;3.92;;;18.70;96.70;;;;;;5068347;28;20565;-75
2023/03/13 10:48:14;;;;;;;8.80;3.58;;;18.80;96.70;;;;;;5100351;28;20620;-75
2023/03/13 10:50:43;;;;;;;10.18;3.50;;;18.90;96.70;;;;;;5055930;28;20048;-74
2023/03/13 10:53:24;;;;;;;7.85;3.00;;;18.90;96.70;;;;;;5089494;28;20223;-74
2023/03/13 10:55:55;;;;;;;10.43;3.70;;;18.80;96.70;;;;;;5062589;28;20098;-73
2023/03/13 10:58:29;;;;;;;6.70;2.53;;;18.70;96.70;;;;;;5096038;28;20039;-73
2023/03/13 11:01:15;;;;;;;7.78;3.03;;;18.70;96.70;;;;;;5093872;28;20044;-73
2023/03/13 11:03:44;;;;;;;8.23;2.33;;;18.80;96.70;;;;;;5094041;28;20051;-73
2023/03/13 11:06:27;;;;;;;7.55;2.55;;;19.00;96.70;;;;;;5096431;28;20046;-74
2023/03/13 11:09:01;;;;;;;5.47;1.95;;;19.10;96.70;;;;;;5070808;28;20047;-73
2023/03/13 11:11:42;;;;;;;7.07;1.95;;;19.10;96.70;;;;;;5061145;28;20075;-73
2023/03/13 11:14:14;;;;;;;4.80;1.30;;;19.10;96.70;;;;;;5085840;28;20040;-74
2023/03/13 11:16:48;;;;;;;7.75;1.92;;;19.10;96.70;;;;;;5066696;28;20048;-73
2023/03/13 11:19:33;;;;;;;4.90;1.65;;;19.30;96.70;;;;;;5067371;28;20051;-73
2023/03/13 11:22:14;;;;;;;4.72;1.77;;;19.40;96.70;;;;;;5063050;28;20060;-73
2023/03/13 11:24:48;;;;;;;6.53;1.98;;;19.60;96.70;;;;;;5078585;28;20044;-73
2023/03/13 11:27:26;;;;;;;4.97;1.92;;;20.00;96.70;;;;;;5082394;28;20040;-75
2023/03/13 11:30:06;;;;;;;5.03;2.00;;;20.00;96.70;;;;;;5068882;28;20043;-75
2023/03/13 11:32:41;;;;;;;4.60;1.55;;;19.90;96.70;;;;;;5080678;28;20063;-74
2023/03/13 11:35:20;;;;;;;4.57;1.80;;;19.70;96.70;;;;;;5066979;28;20055;-74
2023/03/13 11:37:51;;;;;;;5.72;1.80;;;19.70;96.70;;;;;;5074558;28;20509;-74
2023/03/13 11:40:23;;;;;;;9.10;2.08;;;19.60;96.70;;;;;;5066146;28;20617;-75
2023/03/13 11:43:08;;;;;;;6.03;2.30;;;19.60;96.70;;;;;;5060885;28;20052;-74
2023/03/13 11:46:15;;;;;;;5.55;2.08;;;19.70;96.70;;;;;;5069964;28;20501;-74
2023/03/13 11:49:27;;;;;;;5.70;2.22;;;19.60;96.70;;;;;;5083376;28;20078;-74
2023/03/13 11:52:08;;;;;;;8.00;2.80;;;19.70;96.70;;;;;;5056809;28;20091;-74
2023/03/13 11:54:59;;;;;;;10.40;3.40;;;20.00;96.70;;;;;;5059390;28;20811;-74
2023/03/13 11:57:29;;;;;;;10.13;3.97;;;20.30;96.70;;;;;;5082872;28;20040;-75
2023/03/13 12:00:23;;;;;;;8.13;3.72;;;20.40;96.70;;;;;;5074107;28;20044;-74
2023/03/13 12:02:55;;;;;;;9.40;4.35;;;20.40;96.70;;;;;;5053741;28;20423;-74
2023/03/13 12:05:25;;;;;;;9.18;4.63;;;20.40;96.70;;;;;;5073376;28;20036;-74
2023/03/13 12:07:58;;;;;;;8.55;3.92;;;20.40;96.70;;;;;;5076949;28;20068;-74
2023/03/13 12:10:30;;;;;;;10.02;4.07;;;20.40;96.70;;;;;;5056148;28;20045;-75
2023/03/13 12:13:04;;;;;;;8.50;3.53;;;20.30;96.70;;;;;;5067786;28;20048;-75
2023/03/13 12:15:36;;;;;;;8.07;2.85;;;20.20;96.70;;;;;;5055662;28;20043;-75
2023/03/13 12:18:12;;;;;;;7.18;2.80;;;20.30;96.70;;;;;;5080246;28;20452;-74
2023/03/13 12:20:44;;;;;;;5.57;2.30;;;20.20;96.70;;;;;;5056931;28;20049;-74
2023/03/13 12:23:18;;;;;;;10.55;3.08;;;20.10;96.70;;;;;;5054663;28;20048;-74
2023/03/13 12:25:51;;;;;;;6.47;2.78;;;20.00;96.70;;;;;;5099245;28;20097;-74
2023/03/13 12:28:28;;;;;;;10.50;3.45;;;20.10;96.70;;;;;;5065906;28;20044;-74
2023/03/13 12:31:08;;;;;;;7.43;2.30;;;20.00;96.70;;;;;;5079585;28;20557;-75
2023/03/13 12:33:42;;;;;;;7.25;2.80;;;20.00;96.70;;;;;;5064278;28;20123;-74
2023/03/13 12:36:17;;;;;;;7.18;2.67;;;20.10;96.70;;;;;;5092559;28;20040;-74
2023/03/13 12:38:53;;;;;;;11.00;3.13;;;20.10;96.70;;;;;;5085388;28;20043;-74
2023/03/13 12:41:25;;;;;;;7.32;3.10;;;20.20;96.70;;;;;;5071824;28;20066;-74
2023/03/13 12:43:54;;;;;;;8.70;3.08;;;20.20;96.70;;;;;;5098763;28;20642;-74
2023/03/13 12:46:43;;;;;;;7.10;2.85;;;20.30;96.70;;;;;;5068288;28;20032;-74
2023/03/13 12:49:37;;;;;;;8.13;3.38;;;20.20;96.70;;;;;;5074808;28;20055;-75
2023/03/13 12:52:29;;;;;;;7.85;2.92;;;20.10;96.70;;;;;;5066205;28;20238;-74
2023/03/13 12:55:22;;;;;;;8.52;2.65;;;20.20;96.70;;;;;;5088187;28;20054;-74
2023/03/13 12:58:16;;;;;;;8.73;2.88;;;20.40;96.70;;;;;;5064917;28;20040;-75
2023/03/13 13:00:47;;;;;;;10.32;2.95;;;20.60;96.70;;;;;;5059301;28;20047;-74
2023/03/13 13:03:28;;;;;;;9.50;3.08;;;20.70;96.70;;;;;;5090933;28;20048;-74
2023/03/13 13:06:03;;;;;;;12.00;3.05;;;20.60;96.70;;;;;;5085989;28;20085;-75
2023/03/13 13:08:35;;;;;;;10.82;2.90;;;20.40;96.70;;;;;;5094192;28;20134;-74
2023/03/13 13:11:42;;;;;;;12.90;3.47;;;20.60;96.70;;;;;;5077035;28;20052;-74
2023/03/13 13:14:52;;;;;;;7.53;2.88;;;20.90;96.70;;;;;;5085558;28;20089;-74
2023/03/13 13:17:29;;;;;;;9.50;3.08;;;21.20;96.70;;;;;;5046272;28;20043;-74